createdAt,value
2023-05-18T00:00:15.401Z,65.26
2023-05-18T00:01:06.150Z,65.36
2023-05-18T00:01:56.937Z,65.47
2023-05-18T00:02:48.450Z,65.54
2023-05-18T00:03:39.270Z,65.64
2023-05-18T00:04:30.351Z,65.74
2023-05-18T00:05:21.393Z,65.74
2023-05-18T00:06:12.163Z,65.74
2023-05-18T00:07:03.000Z,65.84
2023-05-18T00:07:53.681Z,65.84
2023-05-18T00:08:44.799Z,65.84
2023-05-18T00:09:35.625Z,65.84
2023-05-18T00:10:26.808Z,65.84
2023-05-18T00:11:17.728Z,65.74
2023-05-18T00:12:08.531Z,65.64
2023-05-18T00:12:59.732Z,65.44
2023-05-18T00:13:50.743Z,65.23
2023-05-18T00:14:41.516Z,65.33
2023-05-18T00:15:32.389Z,65.33
2023-05-18T00:16:23.518Z,65.23
2023-05-18T00:17:14.460Z,65.12
2023-05-18T00:18:05.829Z,65.12
2023-05-18T00:18:56.876Z,65.23
2023-05-18T00:19:47.677Z,65.12
2023-05-18T00:20:38.465Z,65.23
2023-05-18T00:21:29.243Z,65.33
2023-05-18T00:22:20.043Z,65.44
2023-05-18T00:23:10.873Z,65.64
2023-05-18T00:24:01.605Z,65.74
2023-05-18T00:24:52.399Z,65.64
2023-05-18T00:25:43.056Z,65.54
2023-05-18T00:26:33.785Z,65.54
2023-05-18T00:27:24.566Z,65.44
2023-05-18T00:28:15.365Z,65.33
2023-05-18T00:29:06.164Z,65.33
2023-05-18T00:29:56.942Z,65.33
2023-05-18T00:30:47.706Z,65.33
2023-05-18T00:31:38.548Z,65.33
2023-05-18T00:32:29.311Z,65.33
2023-05-18T00:33:20.088Z,65.33
2023-05-18T00:34:10.853Z,65.33
2023-05-18T00:35:01.654Z,65.33
2023-05-18T00:35:52.438Z,65.23
2023-05-18T00:36:43.226Z,65.20
2023-05-18T00:37:34.008Z,65.33
2023-05-18T00:38:24.786Z,65.20
2023-05-18T00:39:15.559Z,65.00
2023-05-18T00:40:06.366Z,65.00
2023-05-18T00:40:57.138Z,65.03
2023-05-18T00:41:47.968Z,64.89
2023-05-18T00:42:38.710Z,64.89
2023-05-18T00:43:29.501Z,64.89
2023-05-18T00:44:20.280Z,65.00
2023-05-18T00:45:11.080Z,65.10
2023-05-18T00:46:01.904Z,65.20
2023-05-18T00:46:52.675Z,65.20
2023-05-18T00:47:43.510Z,65.20
2023-05-18T00:48:34.337Z,65.20
2023-05-18T00:49:25.094Z,65.20
2023-05-18T00:50:15.872Z,65.10
2023-05-18T00:51:06.666Z,65.10
2023-05-18T00:51:57.454Z,65.10
2023-05-18T00:52:48.242Z,65.10
2023-05-18T00:53:39.023Z,65.10
2023-05-18T00:54:29.822Z,65.20
2023-05-18T00:55:20.598Z,65.30
2023-05-18T00:56:11.392Z,65.41
2023-05-18T00:57:02.238Z,65.41
2023-05-18T00:57:52.982Z,65.41
2023-05-18T00:58:43.770Z,65.41
2023-05-18T00:59:34.565Z,65.61
2023-05-18T01:00:25.596Z,65.71
2023-05-18T01:01:16.878Z,65.81
2023-05-18T01:02:07.539Z,65.84
2023-05-18T01:02:58.707Z,65.81
2023-05-18T01:03:49.909Z,65.81
2023-05-18T01:04:40.732Z,65.81
2023-05-18T01:05:32.148Z,65.81
2023-05-18T01:06:22.962Z,65.95
2023-05-18T01:07:13.783Z,65.92
2023-05-18T01:08:04.753Z,65.92
2023-05-18T01:08:55.891Z,65.95
2023-05-18T01:09:46.803Z,65.84
2023-05-18T01:10:37.778Z,65.92
2023-05-18T01:11:28.904Z,65.95
2023-05-18T01:12:20.039Z,65.92
2023-05-18T01:13:11.007Z,66.05
2023-05-18T01:14:02.058Z,66.12
2023-05-18T01:14:53.350Z,66.12
2023-05-18T01:15:44.091Z,66.12
2023-05-18T01:16:35.028Z,66.12
2023-05-18T01:17:26.034Z,66.12
2023-05-18T01:18:17.033Z,66.12
2023-05-18T01:19:07.938Z,66.12
2023-05-18T01:19:58.728Z,66.12
2023-05-18T01:20:49.730Z,66.12
2023-05-18T01:21:40.685Z,66.12
2023-05-18T01:22:31.761Z,66.22
2023-05-18T01:23:22.660Z,66.22
2023-05-18T01:24:13.273Z,66.22
2023-05-18T01:25:04.533Z,66.22
2023-05-18T01:25:55.766Z,66.12
2023-05-18T01:26:46.698Z,66.12
2023-05-18T01:27:37.653Z,66.22
2023-05-18T01:28:28.701Z,66.22
2023-05-18T01:29:19.698Z,66.22
2023-05-18T01:30:10.701Z,66.33
2023-05-18T01:31:01.686Z,66.36
2023-05-18T01:31:52.583Z,66.43
2023-05-18T01:32:43.530Z,66.36
2023-05-18T01:33:34.802Z,66.36
2023-05-18T01:34:25.898Z,66.36
2023-05-18T01:35:17.088Z,66.36
2023-05-18T01:36:08.111Z,66.36
2023-05-18T01:36:59.264Z,66.36
2023-05-18T01:37:50.334Z,66.36
2023-05-18T01:38:43.732Z,66.46
2023-05-18T01:39:31.824Z,66.56
2023-05-18T01:40:22.581Z,66.56
2023-05-18T01:41:13.338Z,66.56
2023-05-18T01:42:04.452Z,66.56
2023-05-18T01:42:55.481Z,66.67
2023-05-18T01:43:46.619Z,66.77
2023-05-18T01:44:37.625Z,66.77
2023-05-18T01:45:28.866Z,66.77
2023-05-18T01:46:19.628Z,66.77
2023-05-18T01:47:10.704Z,66.87
2023-05-18T01:48:01.957Z,66.87
2023-05-18T01:48:52.869Z,66.97
2023-05-18T01:49:44.081Z,66.97
2023-05-18T01:50:34.783Z,66.97
2023-05-18T01:51:25.997Z,66.97
2023-05-18T01:52:16.667Z,66.97
2023-05-18T01:53:07.844Z,66.97
2023-05-18T01:53:58.559Z,66.97
2023-05-18T01:54:49.260Z,66.97
2023-05-18T01:55:40.035Z,66.97
2023-05-18T01:56:30.735Z,66.87
2023-05-18T01:57:21.453Z,66.77
2023-05-18T01:58:12.109Z,66.80
2023-05-18T01:59:03.451Z,66.90
2023-05-18T01:59:54.210Z,67.11
2023-05-18T02:00:45.008Z,67.21
2023-05-18T02:01:35.739Z,67.32
2023-05-18T02:02:26.468Z,67.21
2023-05-18T02:03:17.388Z,67.21
2023-05-18T02:04:08.208Z,67.21
2023-05-18T02:04:59.021Z,67.41
2023-05-18T02:05:49.711Z,67.52
2023-05-18T02:06:40.427Z,67.52
2023-05-18T02:07:31.218Z,67.41
2023-05-18T02:08:21.958Z,67.52
2023-05-18T02:09:12.718Z,67.52
2023-05-18T02:10:03.488Z,67.62
2023-05-18T02:10:54.250Z,67.62
2023-05-18T02:11:45.017Z,67.72
2023-05-18T02:12:35.787Z,67.62
2023-05-18T02:13:26.547Z,67.62
2023-05-18T02:14:17.310Z,67.72
2023-05-18T02:15:08.093Z,67.72
2023-05-18T02:15:58.875Z,67.72
2023-05-18T02:16:49.631Z,67.83
2023-05-18T02:17:40.539Z,67.86
2023-05-18T02:18:31.284Z,67.83
2023-05-18T02:19:22.131Z,67.83
2023-05-18T02:20:12.933Z,67.83
2023-05-18T02:21:03.630Z,68.03
2023-05-18T02:21:54.803Z,68.03
2023-05-18T02:22:45.578Z,68.03
2023-05-18T02:23:36.321Z,68.03
2023-05-18T02:24:27.402Z,68.03
2023-05-18T02:25:18.157Z,68.13
2023-05-18T02:26:08.923Z,68.13
2023-05-18T02:26:59.719Z,68.03
2023-05-18T02:27:50.465Z,68.03
2023-05-18T02:28:41.242Z,68.13
2023-05-18T02:29:32.004Z,68.13
2023-05-18T02:30:22.775Z,68.13
2023-05-18T02:31:13.559Z,68.13
2023-05-18T02:32:04.338Z,68.13
2023-05-18T02:32:55.059Z,68.03
2023-05-18T02:33:46.058Z,68.03
2023-05-18T02:34:36.827Z,68.24
2023-05-18T02:35:27.755Z,68.24
2023-05-18T02:36:18.647Z,68.34
2023-05-18T02:37:09.227Z,68.34
2023-05-18T02:38:00.336Z,68.34
2023-05-18T02:38:51.208Z,68.44
2023-05-18T02:39:42.082Z,68.44
2023-05-18T02:40:32.951Z,68.44
2023-05-18T02:41:24.016Z,68.34
2023-05-18T02:42:14.903Z,68.34
2023-05-18T02:43:05.772Z,68.24
2023-05-18T02:43:56.973Z,68.24
2023-05-18T02:44:47.800Z,68.24
2023-05-18T02:45:38.623Z,68.24
2023-05-18T02:46:29.470Z,68.24
2023-05-18T02:47:20.096Z,68.24
2023-05-18T02:48:11.031Z,68.24
2023-05-18T02:49:01.965Z,68.27
2023-05-18T02:49:52.798Z,68.24
2023-05-18T02:50:43.679Z,68.27
2023-05-18T02:51:34.547Z,68.37
2023-05-18T02:52:25.913Z,68.37
2023-05-18T02:53:16.522Z,68.48
2023-05-18T02:54:07.406Z,68.48
2023-05-18T02:54:58.271Z,68.57
2023-05-18T02:55:49.118Z,68.57
2023-05-18T02:56:39.980Z,68.57
2023-05-18T02:57:30.882Z,68.48
2023-05-18T02:58:21.738Z,68.48
2023-05-18T02:59:12.615Z,68.57
2023-05-18T03:00:03.511Z,68.57
2023-05-18T03:00:54.388Z,68.48
2023-05-18T03:01:45.388Z,68.57
2023-05-18T03:02:36.462Z,68.57
2023-05-18T03:03:27.358Z,68.68
2023-05-18T03:04:18.198Z,68.78
2023-05-18T03:05:09.071Z,68.78
2023-05-18T03:05:59.950Z,68.78
2023-05-18T03:06:50.803Z,68.78
2023-05-18T03:07:41.674Z,68.78
2023-05-18T03:08:32.593Z,69.02
2023-05-18T03:09:23.451Z,69.02
2023-05-18T03:10:14.309Z,69.12
2023-05-18T03:11:05.180Z,69.23
2023-05-18T03:11:56.055Z,69.23
2023-05-18T03:12:46.927Z,69.32
2023-05-18T03:13:37.827Z,69.43
2023-05-18T03:14:28.686Z,69.53
2023-05-18T03:15:19.601Z,69.53
2023-05-18T03:16:10.448Z,69.43
2023-05-18T03:17:01.359Z,69.43
2023-05-18T03:17:52.273Z,69.43
2023-05-18T03:18:43.145Z,69.53
2023-05-18T03:19:34.004Z,69.64
2023-05-18T03:20:24.902Z,69.74
2023-05-18T03:21:15.796Z,69.74
2023-05-18T03:22:06.662Z,69.74
2023-05-18T03:22:57.554Z,69.74
2023-05-18T03:23:48.414Z,69.84
2023-05-18T03:24:39.312Z,69.94
2023-05-18T03:25:30.963Z,70.04
2023-05-18T03:26:21.363Z,70.04
2023-05-18T03:27:12.221Z,69.94
2023-05-18T03:28:03.090Z,69.94
2023-05-18T03:28:53.971Z,69.84
2023-05-18T03:29:44.883Z,69.84
2023-05-18T03:30:36.370Z,69.74
2023-05-18T03:31:26.637Z,69.74
2023-05-18T03:32:17.498Z,69.74
2023-05-18T03:33:08.382Z,69.74
2023-05-18T03:33:59.260Z,69.74
2023-05-18T03:34:50.136Z,69.64
2023-05-18T03:35:41.024Z,69.64
2023-05-18T03:36:31.916Z,69.64
2023-05-18T03:37:22.802Z,69.53
2023-05-18T03:38:13.681Z,69.53
2023-05-18T03:39:04.577Z,69.43
2023-05-18T03:39:55.457Z,69.32
2023-05-18T03:40:46.354Z,69.12
2023-05-18T03:41:37.230Z,69.12
2023-05-18T03:42:28.108Z,69.12
2023-05-18T03:43:18.994Z,69.02
2023-05-18T03:44:09.885Z,69.02
2023-05-18T03:45:00.776Z,69.02
2023-05-18T03:45:51.807Z,68.99
2023-05-18T03:46:42.709Z,69.09
2023-05-18T03:47:33.543Z,69.09
2023-05-18T03:48:24.420Z,68.88
2023-05-18T03:49:15.285Z,68.88
2023-05-18T03:50:06.171Z,68.88
2023-05-18T03:50:57.058Z,68.88
2023-05-18T03:51:47.963Z,68.88
2023-05-18T03:52:38.822Z,68.78
2023-05-18T03:53:29.711Z,68.88
2023-05-18T03:54:20.613Z,68.99
2023-05-18T03:55:11.506Z,69.09
2023-05-18T03:56:02.457Z,69.09
2023-05-18T03:56:53.330Z,69.19
2023-05-18T03:57:44.223Z,69.40
2023-05-18T03:58:35.126Z,69.29
2023-05-18T03:59:26.009Z,69.09
2023-05-18T04:00:16.888Z,69.09
2023-05-18T04:01:07.801Z,69.09
2023-05-18T04:01:58.726Z,69.29
2023-05-18T04:02:49.631Z,69.19
2023-05-18T04:03:40.564Z,69.19
2023-05-18T04:04:31.470Z,69.19
2023-05-18T04:05:22.387Z,69.09
2023-05-18T04:06:13.277Z,68.99
2023-05-18T04:07:04.188Z,68.99
2023-05-18T04:07:55.061Z,68.88
2023-05-18T04:08:45.946Z,68.68
2023-05-18T04:09:36.861Z,68.57
2023-05-18T04:10:27.743Z,68.68
2023-05-18T04:11:18.649Z,68.57
2023-05-18T04:12:09.567Z,68.57
2023-05-18T04:13:00.447Z,68.57
2023-05-18T04:13:51.367Z,68.57
2023-05-18T04:14:42.286Z,68.57
2023-05-18T04:15:33.176Z,68.68
2023-05-18T04:16:24.092Z,68.65
2023-05-18T04:17:14.967Z,68.65
2023-05-18T04:18:05.930Z,68.65
2023-05-18T04:18:56.820Z,68.54
2023-05-18T04:19:47.708Z,68.54
2023-05-18T04:20:38.616Z,68.54
2023-05-18T04:21:29.526Z,68.44
2023-05-18T04:22:20.454Z,68.44
2023-05-18T04:23:11.354Z,68.34
2023-05-18T04:24:02.253Z,68.34
2023-05-18T04:24:53.174Z,68.24
2023-05-18T04:25:44.105Z,68.13
2023-05-18T04:26:35.012Z,68.13
2023-05-18T04:27:25.920Z,68.03
2023-05-18T04:28:16.807Z,68.03
2023-05-18T04:29:07.725Z,68.03
2023-05-18T04:29:58.628Z,68.13
2023-05-18T04:30:49.542Z,68.24
2023-05-18T04:31:40.496Z,68.34
2023-05-18T04:32:31.382Z,68.34
2023-05-18T04:33:22.347Z,68.24
2023-05-18T04:34:13.224Z,68.13
2023-05-18T04:35:04.135Z,68.03
2023-05-18T04:35:55.053Z,68.03
2023-05-18T04:36:45.962Z,68.03
2023-05-18T04:37:36.884Z,68.13
2023-05-18T04:38:27.779Z,67.93
2023-05-18T04:39:18.682Z,67.83
2023-05-18T04:40:09.611Z,67.72
2023-05-18T04:41:00.507Z,67.72
2023-05-18T04:41:51.420Z,67.83
2023-05-18T04:42:42.342Z,68.03
2023-05-18T04:43:33.233Z,68.13
2023-05-18T04:44:24.139Z,68.10
2023-05-18T04:45:15.073Z,68.00
2023-05-18T04:46:05.980Z,67.90
2023-05-18T04:46:57.477Z,67.69
2023-05-18T04:47:47.784Z,67.69
2023-05-18T04:48:38.701Z,67.69
2023-05-18T04:49:29.606Z,67.90
2023-05-18T04:50:20.526Z,68.00
2023-05-18T04:51:11.437Z,68.10
2023-05-18T04:52:02.358Z,68.10
2023-05-18T04:52:53.433Z,68.21
2023-05-18T04:53:44.404Z,68.21
2023-05-18T04:54:35.310Z,68.21
2023-05-18T04:55:26.606Z,68.10
2023-05-18T04:56:16.887Z,68.00
2023-05-18T04:57:07.796Z,67.90
2023-05-18T04:57:58.688Z,68.00
2023-05-18T04:58:49.599Z,67.79
2023-05-18T04:59:40.522Z,67.56
2023-05-18T05:00:31.424Z,67.56
2023-05-18T05:01:22.365Z,67.35
2023-05-18T05:02:13.285Z,67.35
2023-05-18T05:03:04.271Z,67.25
2023-05-18T05:03:56.914Z,67.14
2023-05-18T05:04:46.047Z,67.14
2023-05-18T05:05:36.958Z,66.94
2023-05-18T05:06:27.877Z,66.84
2023-05-18T05:07:18.771Z,66.63
2023-05-18T05:08:09.714Z,66.53
2023-05-18T05:09:00.606Z,66.53
2023-05-18T05:09:51.543Z,66.53
2023-05-18T05:10:42.470Z,66.33
2023-05-18T05:11:33.381Z,66.02
2023-05-18T05:12:24.292Z,65.71
2023-05-18T05:13:15.237Z,65.41
2023-05-18T05:14:06.140Z,65.51
2023-05-18T05:14:57.106Z,65.41
2023-05-18T05:15:47.997Z,65.20
2023-05-18T05:16:38.898Z,65.20
2023-05-18T05:17:29.830Z,65.10
2023-05-18T05:18:20.786Z,65.10
2023-05-18T05:19:11.695Z,64.89
2023-05-18T05:20:02.625Z,64.79
2023-05-18T05:20:53.508Z,64.59
2023-05-18T05:21:44.423Z,64.48
2023-05-18T05:22:35.335Z,64.38
2023-05-18T05:23:26.250Z,64.28
2023-05-18T05:24:17.146Z,64.17
2023-05-18T05:25:08.070Z,63.94
2023-05-18T05:25:58.976Z,63.73
2023-05-18T05:26:49.940Z,63.53
2023-05-18T05:27:40.795Z,63.53
2023-05-18T05:28:31.719Z,63.64
2023-05-18T05:29:22.644Z,63.64
2023-05-18T05:30:13.548Z,63.73
2023-05-18T05:31:04.507Z,63.73
2023-05-18T05:31:55.531Z,63.73
2023-05-18T05:32:46.470Z,63.73
2023-05-18T05:33:37.912Z,63.53
2023-05-18T05:34:28.219Z,63.40
2023-05-18T05:35:19.126Z,63.50
2023-05-18T05:36:10.031Z,63.40
2023-05-18T05:37:00.940Z,63.50
2023-05-18T05:37:51.845Z,63.29
2023-05-18T05:38:42.788Z,62.99
2023-05-18T05:39:33.672Z,62.78
2023-05-18T05:40:24.582Z,62.88
2023-05-18T05:41:15.486Z,62.88
2023-05-18T05:42:06.394Z,62.78
2023-05-18T05:42:57.302Z,62.78
2023-05-18T05:43:48.205Z,62.58
2023-05-18T05:44:39.124Z,62.48
2023-05-18T05:45:30.478Z,62.37
2023-05-18T05:46:20.939Z,62.27
2023-05-18T05:47:11.905Z,62.14
2023-05-18T05:48:02.876Z,62.07
2023-05-18T05:48:53.804Z,61.96
2023-05-18T05:49:44.713Z,61.96
2023-05-18T05:50:35.629Z,61.96
2023-05-18T05:51:26.542Z,62.07
2023-05-18T05:52:17.441Z,61.96
2023-05-18T05:53:08.342Z,62.07
2023-05-18T05:53:59.324Z,62.17
2023-05-18T05:54:50.199Z,62.17
2023-05-18T05:55:41.176Z,62.17
2023-05-18T05:56:32.118Z,62.14
2023-05-18T05:57:23.005Z,62.14
2023-05-18T05:58:13.904Z,62.04
2023-05-18T05:59:04.864Z,61.93
2023-05-18T05:59:55.788Z,61.93
2023-05-18T06:00:46.687Z,61.63
2023-05-18T06:01:37.649Z,61.32
2023-05-18T06:02:28.701Z,61.22
2023-05-18T06:03:19.796Z,61.01
2023-05-18T06:04:10.812Z,60.71
2023-05-18T06:05:01.727Z,60.60
2023-05-18T06:05:52.647Z,60.40
2023-05-18T06:06:43.540Z,60.40
2023-05-18T06:07:34.447Z,60.60
2023-05-18T06:08:25.356Z,60.50
2023-05-18T06:09:16.299Z,60.19
2023-05-18T06:10:07.216Z,59.89
2023-05-18T06:10:58.115Z,59.89
2023-05-18T06:11:49.026Z,59.78
2023-05-18T06:12:39.926Z,59.78
2023-05-18T06:13:30.828Z,59.89
2023-05-18T06:14:21.719Z,60.10
2023-05-18T06:15:12.624Z,60.19
2023-05-18T06:16:03.690Z,60.30
2023-05-18T06:16:54.598Z,60.30
2023-05-18T06:17:45.494Z,60.50
2023-05-18T06:18:36.437Z,60.60
2023-05-18T06:19:27.372Z,60.50
2023-05-18T06:20:18.261Z,60.10
2023-05-18T06:21:09.156Z,59.78
2023-05-18T06:22:00.051Z,59.78
2023-05-18T06:22:50.983Z,59.89
2023-05-18T06:23:42.188Z,59.99
2023-05-18T06:24:33.125Z,60.10
2023-05-18T06:25:24.041Z,60.19
2023-05-18T06:26:14.947Z,59.99
2023-05-18T06:27:05.851Z,59.68
2023-05-18T06:27:56.795Z,59.58
2023-05-18T06:28:47.683Z,59.58
2023-05-18T06:29:38.597Z,59.58
2023-05-18T06:30:29.582Z,59.58
2023-05-18T06:31:20.499Z,59.58
2023-05-18T06:32:11.439Z,59.58
2023-05-18T06:33:02.386Z,59.78
2023-05-18T06:33:53.267Z,59.89
2023-05-18T06:34:44.363Z,59.89
2023-05-18T06:35:35.238Z,59.78
2023-05-18T06:36:26.145Z,59.68
2023-05-18T06:37:17.043Z,59.78
2023-05-18T06:38:07.964Z,59.76
2023-05-18T06:38:59.505Z,59.55
2023-05-18T06:39:49.831Z,59.45
2023-05-18T06:40:40.753Z,59.45
2023-05-18T06:41:31.653Z,59.55
2023-05-18T06:42:22.567Z,59.55
2023-05-18T06:43:13.478Z,59.66
2023-05-18T06:44:04.409Z,59.96
2023-05-18T06:44:55.312Z,60.06
2023-05-18T06:45:46.254Z,59.96
2023-05-18T06:46:37.219Z,59.86
2023-05-18T06:47:28.153Z,59.86
2023-05-18T06:48:19.047Z,59.73
2023-05-18T06:49:09.964Z,59.63
2023-05-18T06:50:00.865Z,59.63
2023-05-18T06:50:51.763Z,59.53
2023-05-18T06:51:42.680Z,59.63
2023-05-18T06:52:33.578Z,59.63
2023-05-18T06:53:24.489Z,59.53
2023-05-18T06:54:15.402Z,59.42
2023-05-18T06:55:06.344Z,59.53
2023-05-18T06:55:57.219Z,59.63
2023-05-18T06:56:48.135Z,59.73
2023-05-18T06:57:39.042Z,59.83
2023-05-18T06:58:29.960Z,59.83
2023-05-18T06:59:20.890Z,59.73
2023-05-18T07:00:11.846Z,59.42
2023-05-18T07:01:02.819Z,59.32
2023-05-18T07:01:53.799Z,59.42
2023-05-18T07:02:44.721Z,59.19
2023-05-18T07:03:35.657Z,58.89
2023-05-18T07:04:26.555Z,58.98
2023-05-18T07:05:17.460Z,58.98
2023-05-18T07:06:08.376Z,58.78
2023-05-18T07:06:59.251Z,58.81
2023-05-18T07:07:50.185Z,58.68
2023-05-18T07:08:41.216Z,58.68
2023-05-18T07:09:32.061Z,58.68
2023-05-18T07:10:23.000Z,58.68
2023-05-18T07:11:13.889Z,58.78
2023-05-18T07:12:04.794Z,58.68
2023-05-18T07:12:55.702Z,58.37
2023-05-18T07:13:46.595Z,58.27
2023-05-18T07:14:37.523Z,58.48
2023-05-18T07:15:28.475Z,58.58
2023-05-18T07:16:19.456Z,58.27
2023-05-18T07:17:10.318Z,58.17
2023-05-18T07:18:01.293Z,58.17
2023-05-18T07:18:52.188Z,57.76
2023-05-18T07:19:43.054Z,57.56
2023-05-18T07:20:33.980Z,57.35
2023-05-18T07:21:24.890Z,57.35
2023-05-18T07:22:15.787Z,57.35
2023-05-18T07:23:07.504Z,57.35
2023-05-18T07:23:57.800Z,57.56
2023-05-18T07:24:48.731Z,57.66
2023-05-18T07:25:40.510Z,57.76
2023-05-18T07:26:30.779Z,57.66
2023-05-18T07:27:21.692Z,57.66
2023-05-18T07:28:12.608Z,57.56
2023-05-18T07:29:03.536Z,57.56
2023-05-18T07:29:54.427Z,57.66
2023-05-18T07:30:45.336Z,57.63
2023-05-18T07:31:36.284Z,57.32
2023-05-18T07:32:27.264Z,57.22
2023-05-18T07:33:18.212Z,57.22
2023-05-18T07:34:09.080Z,57.22
2023-05-18T07:34:59.992Z,57.22
2023-05-18T07:35:50.898Z,57.12
2023-05-18T07:36:41.825Z,57.02
2023-05-18T07:37:32.735Z,56.99
2023-05-18T07:38:23.651Z,57.09
2023-05-18T07:39:14.570Z,57.20
2023-05-18T07:40:05.508Z,57.20
2023-05-18T07:40:56.402Z,57.20
2023-05-18T07:41:47.318Z,56.79
2023-05-18T07:42:38.222Z,56.68
2023-05-18T07:43:29.134Z,56.58
2023-05-18T07:44:20.049Z,56.38
2023-05-18T07:45:10.988Z,56.48
2023-05-18T07:46:01.903Z,56.79
2023-05-18T07:46:52.953Z,56.96
2023-05-18T07:47:43.977Z,57.07
2023-05-18T07:48:34.926Z,56.96
2023-05-18T07:49:25.852Z,56.76
2023-05-18T07:50:16.786Z,56.56
2023-05-18T07:51:07.702Z,56.45
2023-05-18T07:51:58.631Z,56.15
2023-05-18T07:52:49.562Z,56.15
2023-05-18T07:53:40.477Z,56.04
2023-05-18T07:54:31.425Z,55.91
2023-05-18T07:55:22.352Z,56.02
2023-05-18T07:56:13.294Z,55.82
2023-05-18T07:57:04.221Z,55.82
2023-05-18T07:57:55.136Z,55.82
2023-05-18T07:58:46.060Z,55.82
2023-05-18T07:59:36.990Z,55.61
2023-05-18T08:00:27.909Z,55.30
2023-05-18T08:01:18.832Z,55.20
2023-05-18T08:02:09.838Z,55.20
2023-05-18T08:03:01.053Z,55.20
2023-05-18T08:03:51.669Z,55.20
2023-05-18T08:04:42.608Z,54.90
2023-05-18T08:05:33.734Z,54.90
2023-05-18T08:06:24.150Z,55.10
2023-05-18T08:07:15.059Z,55.10
2023-05-18T08:08:07.005Z,55.00
2023-05-18T08:08:56.831Z,54.90
2023-05-18T08:09:47.754Z,54.69
2023-05-18T08:10:38.669Z,54.67
2023-05-18T08:11:29.614Z,54.57
2023-05-18T08:12:20.517Z,54.57
2023-05-18T08:13:11.451Z,54.46
2023-05-18T08:14:02.418Z,54.77
2023-05-18T08:14:53.316Z,55.07
2023-05-18T08:15:44.268Z,55.28
2023-05-18T08:16:35.219Z,55.38
2023-05-18T08:17:26.172Z,55.07
2023-05-18T08:18:17.128Z,54.87
2023-05-18T08:19:08.069Z,55.05
2023-05-18T08:19:58.944Z,55.15
2023-05-18T08:20:49.881Z,55.15
2023-05-18T08:21:40.820Z,55.35
2023-05-18T08:22:31.716Z,55.66
2023-05-18T08:23:22.645Z,55.66
2023-05-18T08:24:13.568Z,55.46
2023-05-18T08:25:04.503Z,55.33
2023-05-18T08:25:55.417Z,55.13
2023-05-18T08:26:46.350Z,54.92
2023-05-18T08:27:37.245Z,54.92
2023-05-18T08:28:28.171Z,54.72
2023-05-18T08:29:19.114Z,54.31
2023-05-18T08:30:10.126Z,54.39
2023-05-18T08:31:01.025Z,54.49
2023-05-18T08:31:52.006Z,54.49
2023-05-18T08:32:42.922Z,54.39
2023-05-18T08:33:33.849Z,54.49
2023-05-18T08:34:24.791Z,54.28
2023-05-18T08:35:15.745Z,54.28
2023-05-18T08:36:06.673Z,54.16
2023-05-18T08:36:57.629Z,54.05
2023-05-18T08:37:48.568Z,53.75
2023-05-18T08:38:39.510Z,53.65
2023-05-18T08:39:30.445Z,53.65
2023-05-18T08:40:21.406Z,53.65
2023-05-18T08:41:12.336Z,53.75
2023-05-18T08:42:03.314Z,53.55
2023-05-18T08:42:54.237Z,53.14
2023-05-18T08:43:45.149Z,52.91
2023-05-18T08:44:36.079Z,52.91
2023-05-18T08:45:27.009Z,53.02
2023-05-18T08:46:17.960Z,53.42
2023-05-18T08:47:08.906Z,53.72
2023-05-18T08:47:59.947Z,53.52
2023-05-18T08:48:50.942Z,53.32
2023-05-18T08:49:41.830Z,53.22
2023-05-18T08:50:33.080Z,53.22
2023-05-18T08:51:23.550Z,53.02
2023-05-18T08:52:14.473Z,53.11
2023-05-18T08:53:05.421Z,53.32
2023-05-18T08:53:56.357Z,53.22
2023-05-18T08:54:47.304Z,53.02
2023-05-18T08:55:38.244Z,53.22
2023-05-18T08:56:29.187Z,53.11
2023-05-18T08:57:20.151Z,53.22
2023-05-18T08:58:11.049Z,53.42
2023-05-18T08:59:01.975Z,52.91
2023-05-18T08:59:52.923Z,52.81
2023-05-18T09:00:43.864Z,52.91
2023-05-18T09:01:34.821Z,52.81
2023-05-18T09:02:25.766Z,52.81
2023-05-18T09:03:16.690Z,52.81
2023-05-18T09:04:07.650Z,52.71
2023-05-18T09:04:58.597Z,52.78
2023-05-18T09:05:49.542Z,52.98
2023-05-18T09:06:40.474Z,52.89
2023-05-18T09:07:31.413Z,52.98
2023-05-18T09:08:22.368Z,53.09
2023-05-18T09:09:13.316Z,52.98
2023-05-18T09:10:04.434Z,52.89
2023-05-18T09:10:55.596Z,53.09
2023-05-18T09:11:46.454Z,52.98
2023-05-18T09:12:37.426Z,52.78
2023-05-18T09:13:28.344Z,52.66
2023-05-18T09:14:19.319Z,52.78
2023-05-18T09:15:10.230Z,52.86
2023-05-18T09:16:01.256Z,52.89
2023-05-18T09:16:53.590Z,52.66
2023-05-18T09:17:43.352Z,52.56
2023-05-18T09:18:34.266Z,52.35
2023-05-18T09:19:25.310Z,52.56
2023-05-18T09:20:16.209Z,52.58
2023-05-18T09:21:07.151Z,52.58
2023-05-18T09:21:58.107Z,52.56
2023-05-18T09:22:49.045Z,52.45
2023-05-18T09:23:39.985Z,52.56
2023-05-18T09:24:30.929Z,52.66
2023-05-18T09:25:21.845Z,52.25
2023-05-18T09:26:12.858Z,52.05
2023-05-18T09:27:03.778Z,52.12
2023-05-18T09:27:54.878Z,52.33
2023-05-18T09:28:45.845Z,52.43
2023-05-18T09:29:44.745Z,52.43
2023-05-18T09:30:27.783Z,51.82
2023-05-18T09:31:18.772Z,51.42
2023-05-18T09:32:09.736Z,51.51
2023-05-18T09:33:00.757Z,51.62
2023-05-18T09:33:51.812Z,51.51
2023-05-18T09:34:43.599Z,51.72
2023-05-18T09:35:33.490Z,52.03
2023-05-18T09:36:24.454Z,51.90
2023-05-18T09:37:15.394Z,51.70
2023-05-18T09:38:06.361Z,51.59
2023-05-18T09:38:57.314Z,51.59
2023-05-18T09:39:48.244Z,51.49
2023-05-18T09:40:40.054Z,51.39
2023-05-18T09:41:30.326Z,51.49
2023-05-18T09:42:24.105Z,51.49
2023-05-18T09:43:12.123Z,51.49
2023-05-18T09:44:03.024Z,51.49
2023-05-18T09:44:53.951Z,51.49
2023-05-18T09:45:44.904Z,51.59
2023-05-18T09:46:35.844Z,51.59
2023-05-18T09:47:26.793Z,51.39
2023-05-18T09:48:25.527Z,51.59
2023-05-18T09:49:08.552Z,51.59
2023-05-18T09:49:59.491Z,51.59
2023-05-18T09:50:50.508Z,51.49
2023-05-18T09:51:41.467Z,51.79
2023-05-18T09:52:32.505Z,51.79
2023-05-18T09:53:23.445Z,51.67
2023-05-18T09:54:14.424Z,51.77
2023-05-18T09:55:05.361Z,51.57
2023-05-18T09:55:56.382Z,51.46
2023-05-18T09:56:55.373Z,51.37
2023-05-18T09:57:38.261Z,51.67
2023-05-18T09:58:29.491Z,51.77
2023-05-18T09:59:20.386Z,51.67
2023-05-18T10:00:11.379Z,51.34
2023-05-18T10:01:02.338Z,51.24
2023-05-18T10:01:53.356Z,50.93
2023-05-18T10:02:44.343Z,50.73
2023-05-18T10:03:35.254Z,50.63
2023-05-18T10:04:26.201Z,50.63
2023-05-18T10:05:17.236Z,50.84
2023-05-18T10:06:08.171Z,50.93
2023-05-18T10:06:59.125Z,50.93
2023-05-18T10:07:50.073Z,50.93
2023-05-18T10:08:41.026Z,51.24
2023-05-18T10:09:31.961Z,50.93
2023-05-18T10:10:23.015Z,51.04
2023-05-18T10:11:13.943Z,51.34
2023-05-18T10:12:04.916Z,51.24
2023-05-18T10:12:55.837Z,51.21
2023-05-18T10:13:46.871Z,51.12
2023-05-18T10:14:37.826Z,50.91
2023-05-18T10:15:28.889Z,50.71
2023-05-18T10:16:19.829Z,50.40
2023-05-18T10:17:15.683Z,50.31
2023-05-18T10:18:02.723Z,50.51
2023-05-18T10:18:52.512Z,50.40
2023-05-18T10:19:43.413Z,50.71
2023-05-18T10:20:34.465Z,50.81
2023-05-18T10:21:25.392Z,50.71
2023-05-18T10:22:16.362Z,50.79
2023-05-18T10:23:07.279Z,50.79
2023-05-18T10:23:58.262Z,50.48
2023-05-18T10:24:49.199Z,50.08
2023-05-18T10:25:40.218Z,50.08
2023-05-18T10:26:31.174Z,49.87
2023-05-18T10:27:22.211Z,50.08
2023-05-18T10:28:13.155Z,50.38
2023-05-18T10:29:04.160Z,50.59
2023-05-18T10:29:55.065Z,50.48
2023-05-18T10:30:46.129Z,50.26
2023-05-18T10:31:37.030Z,50.05
2023-05-18T10:32:28.022Z,49.75
2023-05-18T10:33:28.652Z,49.65
2023-05-18T10:34:09.867Z,49.55
2023-05-18T10:35:00.877Z,49.44
2023-05-18T10:35:51.811Z,49.34
2023-05-18T10:36:42.766Z,49.44
2023-05-18T10:37:33.683Z,49.65
2023-05-18T10:38:24.642Z,49.73
2023-05-18T10:39:15.600Z,49.83
2023-05-18T10:40:06.648Z,49.83
2023-05-18T10:40:57.591Z,49.42
2023-05-18T10:41:48.532Z,49.83
2023-05-18T10:42:39.478Z,49.70
2023-05-18T10:43:30.420Z,49.40
2023-05-18T10:44:21.437Z,49.19
2023-05-18T10:45:12.432Z,48.90
2023-05-18T10:46:03.470Z,48.39
2023-05-18T10:46:54.738Z,47.88
2023-05-18T10:47:45.256Z,47.78
2023-05-18T10:48:36.130Z,47.98
2023-05-18T10:49:27.066Z,48.08
2023-05-18T10:50:18.137Z,47.88
2023-05-18T10:51:09.096Z,48.18
2023-05-18T10:52:00.071Z,48.28
2023-05-18T10:52:51.012Z,48.18
2023-05-18T10:53:41.955Z,47.98
2023-05-18T10:54:32.906Z,48.26
2023-05-18T10:55:23.953Z,48.57